createdAt,value
2022-12-12T00:01:13.339Z,80.40
2022-12-12T00:03:40.096Z,80.11
2022-12-12T00:06:07.202Z,80.21
2022-12-12T00:08:35.225Z,80.19
2022-12-12T00:11:01.889Z,79.99
2022-12-12T00:13:28.577Z,80.59
2022-12-12T00:15:55.334Z,80.74
2022-12-12T00:18:22.018Z,80.00
2022-12-12T00:20:51.813Z,80.68
2022-12-12T00:23:18.642Z,79.89
2022-12-12T00:25:53.868Z,80.41
2022-12-12T00:28:20.531Z,79.98
2022-12-12T00:30:47.645Z,80.08
2022-12-12T00:33:14.254Z,80.34
2022-12-12T00:35:40.888Z,79.95
2022-12-12T00:38:07.522Z,80.40
2022-12-12T00:40:34.876Z,80.42
2022-12-12T00:43:03.333Z,79.93
2022-12-12T00:45:30.007Z,80.23
2022-12-12T00:47:56.869Z,79.99
2022-12-12T00:50:23.516Z,80.01
2022-12-12T00:52:50.190Z,80.13
2022-12-12T00:55:16.866Z,80.31
2022-12-12T00:57:43.513Z,79.92
2022-12-12T01:00:15.724Z,80.03
2022-12-12T01:02:42.269Z,79.90
2022-12-12T01:05:10.634Z,79.84
2022-12-12T01:07:37.933Z,80.19
2022-12-12T01:10:05.895Z,79.74
2022-12-12T01:12:32.829Z,80.16
2022-12-12T01:14:59.546Z,80.24
2022-12-12T01:17:27.633Z,79.78
2022-12-12T01:19:54.265Z,79.73
2022-12-12T01:22:21.024Z,80.11
2022-12-12T01:24:47.883Z,80.17
2022-12-12T01:27:14.672Z,79.87
2022-12-12T01:29:41.401Z,79.75
2022-12-12T01:32:08.345Z,79.82
2022-12-12T01:34:36.359Z,80.05
2022-12-12T01:37:03.090Z,79.83
2022-12-12T01:39:29.731Z,80.30
2022-12-12T01:41:56.422Z,79.74
2022-12-12T01:44:43.489Z,79.97
2022-12-12T01:47:12.028Z,79.82
2022-12-12T01:49:43.655Z,79.94
2022-12-12T01:52:15.310Z,80.23
2022-12-12T01:54:46.271Z,79.82
2022-12-12T01:57:16.825Z,80.39
2022-12-12T01:59:46.065Z,79.83
2022-12-12T02:02:14.034Z,80.33
2022-12-12T02:04:43.286Z,79.82
2022-12-12T02:07:10.319Z,80.25
2022-12-12T02:09:37.884Z,79.99
2022-12-12T02:12:05.168Z,80.23
2022-12-12T02:14:34.773Z,80.22
2022-12-12T02:17:34.201Z,80.26
2022-12-12T02:20:38.461Z,80.56
2022-12-12T02:23:38.754Z,80.04
2022-12-12T02:26:22.479Z,79.94
2022-12-12T02:29:15.518Z,79.90
2022-12-12T02:31:51.264Z,80.14
2022-12-12T02:34:26.124Z,80.11
2022-12-12T02:37:00.230Z,80.61
2022-12-12T02:39:35.801Z,80.40
2022-12-12T02:42:08.447Z,80.71
2022-12-12T02:44:43.098Z,80.13
2022-12-12T02:47:16.130Z,80.16
2022-12-12T02:49:48.628Z,80.29
2022-12-12T02:52:17.906Z,80.28
2022-12-12T02:54:45.050Z,80.41
2022-12-12T02:57:14.228Z,80.27
2022-12-12T02:59:42.508Z,80.17
2022-12-12T03:02:42.111Z,80.27
2022-12-12T03:05:49.193Z,80.10
2022-12-12T03:08:44.079Z,80.03
2022-12-12T03:11:13.549Z,80.42
2022-12-12T03:13:47.585Z,80.17
2022-12-12T03:16:24.419Z,80.27
2022-12-12T03:19:00.320Z,80.36
2022-12-12T03:21:35.541Z,80.48
2022-12-12T03:24:07.115Z,80.30
2022-12-12T03:26:42.430Z,79.95
2022-12-12T03:29:13.665Z,80.50
2022-12-12T03:31:45.616Z,79.95
2022-12-12T03:34:17.801Z,80.41
2022-12-12T03:36:47.121Z,80.10
2022-12-12T03:39:18.508Z,80.05
2022-12-12T03:41:54.366Z,80.44
2022-12-12T03:44:26.103Z,80.03
2022-12-12T03:46:56.501Z,80.71
2022-12-12T03:49:33.822Z,80.09
2022-12-12T03:52:07.982Z,79.91
2022-12-12T03:54:39.798Z,80.36
2022-12-12T03:57:13.128Z,79.85
2022-12-12T03:59:42.799Z,80.01
2022-12-12T04:02:16.666Z,79.88
2022-12-12T04:04:51.505Z,79.82
2022-12-12T04:07:22.355Z,80.35
2022-12-12T04:10:08.372Z,80.23
2022-12-12T04:12:58.447Z,79.85
2022-12-12T04:15:37.690Z,79.86
2022-12-12T04:18:14.011Z,80.42
2022-12-12T04:21:03.932Z,80.30
2022-12-12T04:23:39.296Z,80.52
2022-12-12T04:26:30.976Z,79.93
2022-12-12T04:29:06.724Z,80.21
2022-12-12T04:31:37.383Z,79.91
2022-12-12T04:34:10.472Z,80.27
2022-12-12T04:36:43.668Z,80.35
2022-12-12T04:39:13.412Z,80.19
2022-12-12T04:41:43.484Z,79.88
2022-12-12T04:44:12.567Z,80.07
2022-12-12T04:46:41.313Z,80.33
2022-12-12T04:49:14.875Z,80.22
2022-12-12T04:51:47.262Z,79.98
2022-12-12T04:54:20.864Z,80.06
2022-12-12T04:56:52.613Z,79.76
2022-12-12T04:59:19.841Z,79.89
2022-12-12T05:01:53.547Z,80.51
2022-12-12T05:04:25.093Z,79.87
2022-12-12T05:06:58.758Z,80.32
2022-12-12T05:09:25.818Z,80.30
2022-12-12T05:11:53.563Z,79.93
2022-12-12T05:14:20.568Z,79.71
2022-12-12T05:16:51.905Z,80.25
2022-12-12T05:19:18.599Z,79.65
2022-12-12T05:21:45.269Z,80.04
2022-12-12T05:24:13.649Z,79.75
2022-12-12T05:26:40.997Z,79.74
2022-12-12T05:29:07.943Z,79.88
2022-12-12T05:31:35.297Z,80.04
2022-12-12T05:34:01.992Z,79.25
2022-12-12T05:36:28.636Z,79.72
2022-12-12T05:38:55.359Z,79.65
2022-12-12T05:41:23.485Z,79.71
2022-12-12T05:43:50.140Z,79.81
2022-12-12T05:46:17.023Z,79.67
2022-12-12T05:48:44.557Z,79.77
2022-12-12T05:51:14.191Z,79.84
2022-12-12T05:53:43.135Z,79.79
2022-12-12T05:56:11.608Z,79.61
2022-12-12T05:58:40.512Z,80.05
2022-12-12T06:01:08.118Z,79.62
2022-12-12T06:03:35.147Z,79.67
2022-12-12T06:06:02.008Z,79.53
2022-12-12T06:08:29.295Z,79.71
2022-12-12T06:10:56.028Z,79.82
2022-12-12T06:13:22.883Z,79.73
2022-12-12T06:15:51.059Z,80.24
2022-12-12T06:18:17.874Z,79.88
2022-12-12T06:20:44.524Z,79.96
2022-12-12T06:23:11.216Z,79.85
2022-12-12T06:25:38.058Z,79.87
2022-12-12T06:28:04.843Z,79.64
2022-12-12T06:30:31.710Z,79.72
2022-12-12T06:32:59.808Z,79.79
2022-12-12T06:35:26.457Z,79.53
2022-12-12T06:37:53.165Z,79.75
2022-12-12T06:40:19.922Z,79.40
2022-12-12T06:42:48.828Z,79.68
2022-12-12T06:45:17.840Z,79.42
2022-12-12T06:47:44.660Z,80.03
2022-12-12T06:50:13.035Z,79.87
2022-12-12T06:52:39.721Z,80.17
2022-12-12T06:55:06.933Z,79.72
2022-12-12T06:57:33.720Z,80.28
2022-12-12T07:00:00.390Z,79.88
2022-12-12T07:02:30.074Z,79.62
2022-12-12T07:04:57.295Z,79.84
2022-12-12T07:07:25.426Z,79.76
2022-12-12T07:09:52.131Z,79.32
2022-12-12T07:12:18.851Z,79.33
2022-12-12T07:14:48.111Z,79.85
2022-12-12T07:17:38.729Z,79.50
2022-12-12T07:20:06.628Z,79.54
2022-12-12T07:22:34.946Z,79.29
2022-12-12T07:25:01.597Z,79.54
2022-12-12T07:27:30.951Z,79.59
2022-12-12T07:29:57.654Z,79.17
2022-12-12T07:32:24.424Z,79.81
2022-12-12T07:34:51.063Z,79.79
2022-12-12T07:37:18.162Z,79.44
2022-12-12T07:39:46.223Z,79.81
2022-12-12T07:42:13.014Z,79.97
2022-12-12T07:44:39.969Z,79.74
2022-12-12T07:47:06.673Z,79.56
2022-12-12T07:49:33.408Z,79.56
2022-12-12T07:52:00.142Z,79.80
2022-12-12T07:54:26.910Z,79.73
2022-12-12T07:56:55.076Z,79.95
2022-12-12T07:59:21.726Z,79.38
2022-12-12T08:01:48.413Z,79.62
2022-12-12T08:04:15.403Z,80.10
2022-12-12T08:06:42.107Z,79.84
2022-12-12T08:09:09.201Z,80.03
2022-12-12T08:11:36.484Z,79.96
2022-12-12T08:14:11.213Z,79.80
2022-12-12T08:16:39.761Z,79.75
2022-12-12T08:19:06.487Z,79.82
2022-12-12T08:21:33.182Z,79.79
2022-12-12T08:24:02.824Z,80.23
2022-12-12T08:26:30.980Z,79.63
2022-12-12T08:28:58.596Z,80.44
2022-12-12T08:31:27.389Z,79.97
2022-12-12T08:33:54.827Z,79.94
2022-12-12T08:36:24.444Z,79.86
2022-12-12T08:38:51.991Z,80.13
2022-12-12T08:41:19.946Z,80.15
2022-12-12T08:43:46.676Z,80.37
2022-12-12T08:46:18.221Z,79.70
2022-12-12T08:48:47.067Z,80.28
2022-12-12T08:51:14.351Z,80.34
2022-12-12T08:53:43.708Z,80.08
2022-12-12T08:56:10.523Z,80.29
2022-12-12T08:58:37.813Z,79.85
2022-12-12T09:01:09.990Z,80.38
2022-12-12T09:03:36.719Z,80.69
2022-12-12T09:06:05.113Z,79.98
2022-12-12T09:08:31.849Z,80.33
2022-12-12T09:10:59.157Z,80.34
2022-12-12T09:13:26.035Z,79.97
2022-12-12T09:15:52.950Z,80.26
2022-12-12T09:18:20.409Z,80.19
2022-12-12T09:20:48.627Z,80.04
2022-12-12T09:23:16.852Z,80.49
2022-12-12T09:25:43.844Z,80.44
2022-12-12T09:28:11.543Z,80.11
2022-12-12T09:30:38.281Z,80.67
2022-12-12T09:33:05.026Z,80.30
2022-12-12T09:35:31.737Z,80.64
2022-12-12T09:37:58.407Z,80.62
2022-12-12T09:40:32.094Z,80.42
2022-12-12T09:42:59.053Z,80.67
2022-12-12T09:45:26.315Z,80.45
2022-12-12T09:47:55.833Z,80.70
2022-12-12T09:50:27.057Z,80.41
2022-12-12T09:53:00.113Z,80.07
2022-12-12T09:55:37.454Z,80.50
2022-12-12T09:58:08.675Z,80.38
2022-12-12T10:00:42.658Z,80.38
2022-12-12T10:03:23.115Z,80.63
2022-12-12T10:06:20.497Z,80.52
2022-12-12T10:08:53.415Z,80.41
2022-12-12T10:11:47.223Z,80.42
2022-12-12T10:14:15.840Z,80.38
2022-12-12T10:16:46.570Z,80.40
2022-12-12T10:19:22.180Z,80.44
2022-12-12T10:21:51.820Z,80.72
2022-12-12T10:24:29.143Z,80.70
2022-12-12T10:26:58.709Z,80.66
2022-12-12T10:29:27.077Z,80.41
2022-12-12T10:32:04.897Z,80.50
2022-12-12T10:34:44.221Z,80.63
2022-12-12T10:37:28.348Z,80.36
2022-12-12T10:40:02.724Z,80.58
2022-12-12T10:42:38.541Z,79.99
2022-12-12T10:45:28.868Z,80.12
2022-12-12T10:47:55.373Z,80.14
2022-12-12T10:50:28.341Z,80.28
2022-12-12T10:52:55.016Z,80.50
2022-12-12T10:55:26.937Z,80.48
2022-12-12T10:58:03.817Z,80.05
2022-12-12T11:00:33.530Z,80.12
2022-12-12T11:03:12.733Z,80.27
2022-12-12T11:05:41.242Z,80.58
2022-12-12T11:08:19.643Z,80.18
2022-12-12T11:11:00.088Z,80.52
2022-12-12T11:13:28.662Z,80.15
2022-12-12T11:15:59.788Z,80.16
2022-12-12T11:18:27.311Z,80.27
2022-12-12T11:21:03.472Z,80.22
2022-12-12T11:23:32.373Z,80.61
2022-12-12T11:26:02.370Z,80.35
2022-12-12T11:28:34.209Z,80.32
2022-12-12T11:31:04.785Z,80.54
2022-12-12T11:33:35.417Z,80.32
2022-12-12T11:36:06.520Z,80.44
2022-12-12T11:38:39.416Z,80.44
2022-12-12T11:41:09.047Z,80.46
2022-12-12T11:43:38.591Z,80.23
2022-12-12T11:46:08.525Z,80.43
2022-12-12T11:48:40.262Z,80.02
2022-12-12T11:51:07.651Z,80.35
2022-12-12T11:53:38.095Z,80.44
2022-12-12T11:56:29.809Z,80.28
2022-12-12T11:59:12.354Z,80.10
2022-12-12T12:01:54.022Z,80.17
2022-12-12T12:04:35.768Z,80.14
2022-12-12T12:07:20.744Z,80.47
2022-12-12T12:09:54.188Z,79.99
2022-12-12T12:12:31.754Z,79.73
2022-12-12T12:15:26.061Z,80.02
2022-12-12T12:18:05.074Z,79.50
2022-12-12T12:20:48.079Z,79.84
2022-12-12T12:23:22.657Z,79.80
2022-12-12T12:25:55.639Z,79.78
2022-12-12T12:28:39.077Z,79.60
2022-12-12T12:31:12.469Z,79.81
2022-12-12T12:33:54.463Z,79.46
2022-12-12T12:36:24.151Z,79.92
2022-12-12T12:38:57.548Z,79.58
2022-12-12T12:41:39.981Z,79.48
2022-12-12T12:44:21.121Z,79.72
2022-12-12T12:46:55.198Z,79.40
2022-12-12T12:49:24.860Z,79.94
2022-12-12T12:51:57.463Z,79.37
2022-12-12T12:54:27.374Z,79.22
2022-12-12T12:57:00.581Z,79.28
2022-12-12T12:59:33.869Z,79.18
2022-12-12T13:02:12.038Z,79.63
2022-12-12T13:04:42.405Z,79.60
2022-12-12T13:07:18.666Z,79.45
2022-12-12T13:09:50.498Z,79.28
2022-12-12T13:12:25.011Z,79.47
2022-12-12T13:14:55.932Z,79.23
2022-12-12T13:17:35.122Z,79.22
2022-12-12T13:20:03.087Z,79.59
2022-12-12T13:22:37.189Z,79.12
2022-12-12T13:25:14.175Z,79.03
2022-12-12T13:27:46.143Z,79.42
2022-12-12T13:30:21.509Z,78.85
2022-12-12T13:33:04.926Z,78.99
2022-12-12T13:35:35.430Z,78.95
2022-12-12T13:38:03.652Z,79.12
2022-12-12T13:40:32.437Z,78.81
2022-12-12T13:43:07.439Z,79.16
2022-12-12T13:45:40.725Z,79.35
2022-12-12T13:48:32.050Z,79.05
2022-12-12T13:51:31.865Z,79.04
2022-12-12T13:54:50.322Z,79.15
2022-12-12T13:58:02.291Z,78.79
2022-12-12T14:00:30.385Z,79.29
2022-12-12T14:03:25.257Z,79.01
2022-12-12T14:05:53.353Z,79.24
2022-12-12T14:08:27.270Z,78.79
2022-12-12T14:10:58.920Z,78.47
2022-12-12T14:13:36.439Z,79.03
2022-12-12T14:16:07.066Z,78.80
2022-12-12T14:18:39.045Z,78.69
2022-12-12T14:21:09.992Z,78.50
2022-12-12T14:23:38.201Z,78.61
2022-12-12T14:26:40.333Z,79.02
2022-12-12T14:29:27.980Z,79.15
2022-12-12T14:32:16.185Z,78.95
2022-12-12T14:34:54.001Z,78.81
2022-12-12T14:37:38.172Z,78.69
2022-12-12T14:40:11.853Z,79.02
2022-12-12T14:43:20.305Z,78.73
2022-12-12T14:45:36.429Z,78.66
2022-12-12T14:48:25.134Z,79.12
2022-12-12T14:50:57.655Z,79.15
2022-12-12T14:53:27.617Z,78.42
2022-12-12T14:55:57.567Z,78.99
2022-12-12T14:58:28.228Z,78.97
2022-12-12T15:00:57.249Z,78.90
2022-12-12T15:03:27.477Z,78.81
2022-12-12T15:06:26.869Z,78.76
2022-12-12T15:08:55.245Z,78.65
2022-12-12T15:11:24.777Z,78.88
2022-12-12T15:13:53.369Z,79.03
2022-12-12T15:16:26.092Z,78.69
2022-12-12T15:18:54.427Z,78.79
2022-12-12T15:21:21.177Z,78.85
2022-12-12T15:23:49.438Z,79.19
2022-12-12T15:26:19.104Z,78.86
2022-12-12T15:28:47.433Z,79.06
2022-12-12T15:31:16.178Z,78.99
2022-12-12T15:33:43.599Z,78.92
2022-12-12T15:36:26.164Z,79.16
2022-12-12T15:39:16.081Z,78.66
2022-12-12T15:41:43.902Z,79.44
2022-12-12T15:44:17.074Z,78.79
2022-12-12T15:46:44.242Z,78.57
2022-12-12T15:49:41.675Z,78.67
2022-12-12T15:52:11.237Z,78.84
2022-12-12T15:54:45.676Z,79.09
2022-12-12T15:57:16.320Z,78.91
2022-12-12T15:59:43.770Z,79.22
2022-12-12T16:02:22.964Z,78.99
2022-12-12T16:04:54.769Z,79.36
2022-12-12T16:07:23.000Z,79.42
2022-12-12T16:10:17.841Z,79.43
2022-12-12T16:12:59.583Z,79.63
2022-12-12T16:15:31.597Z,78.93
2022-12-12T16:18:00.852Z,79.28
2022-12-12T16:20:30.575Z,79.19
2022-12-12T16:23:09.338Z,79.33
2022-12-12T16:25:37.498Z,78.86
2022-12-12T16:28:23.228Z,78.66
2022-12-12T16:30:55.449Z,79.38
2022-12-12T16:33:29.525Z,79.24
2022-12-12T16:35:57.314Z,78.66
2022-12-12T16:38:24.673Z,79.32
2022-12-12T16:40:56.783Z,78.87
2022-12-12T16:43:24.253Z,79.07
2022-12-12T16:45:52.538Z,79.53
2022-12-12T16:48:20.861Z,79.09
2022-12-12T16:50:49.300Z,78.63
2022-12-12T16:53:16.611Z,79.37
2022-12-12T16:55:45.498Z,78.74
2022-12-12T16:58:15.296Z,79.24
2022-12-12T17:00:42.671Z,79.15
2022-12-12T17:03:13.275Z,79.40
2022-12-12T17:05:40.267Z,78.70
2022-12-12T17:08:07.478Z,79.16
2022-12-12T17:10:36.761Z,79.29
2022-12-12T17:13:05.557Z,79.22
2022-12-12T17:15:34.399Z,78.65
2022-12-12T17:18:01.848Z,78.94
2022-12-12T17:20:37.610Z,79.22
2022-12-12T17:25:49.553Z,79.01
2022-12-12T17:28:18.962Z,79.22
2022-12-12T17:30:49.869Z,79.58
2022-12-12T17:33:19.994Z,78.92
2022-12-12T17:35:58.998Z,79.06
2022-12-12T17:38:25.757Z,79.25
2022-12-12T17:40:54.001Z,78.86
2022-12-12T17:43:21.021Z,79.33
2022-12-12T17:45:58.471Z,79.21
2022-12-12T17:48:28.081Z,78.79
2022-12-12T17:50:59.392Z,79.27
2022-12-12T17:53:32.271Z,78.97
2022-12-12T17:56:01.735Z,78.69
2022-12-12T17:58:54.389Z,78.88
2022-12-12T18:01:27.976Z,79.14
2022-12-12T18:03:55.795Z,79.04
2022-12-12T18:06:27.219Z,79.21
2022-12-12T18:08:54.585Z,78.75
2022-12-12T18:11:24.788Z,79.25
2022-12-12T18:13:54.021Z,79.06
2022-12-12T18:16:21.895Z,79.11
2022-12-12T18:18:50.299Z,79.52
2022-12-12T18:21:51.336Z,78.52
2022-12-12T18:24:06.341Z,78.97
2022-12-12T18:26:33.480Z,78.65
2022-12-12T18:29:02.315Z,79.16
2022-12-12T18:31:29.567Z,79.29
2022-12-12T18:33:58.125Z,79.35
2022-12-12T18:36:27.743Z,78.66
2022-12-12T18:38:55.708Z,78.68
2022-12-12T18:41:26.645Z,79.27
2022-12-12T18:43:53.414Z,79.48
2022-12-12T18:46:22.701Z,79.05
2022-12-12T18:48:49.422Z,78.77
2022-12-12T18:51:19.611Z,79.18
2022-12-12T18:53:46.825Z,79.02
2022-12-12T18:56:16.385Z,78.91
2022-12-12T18:58:43.782Z,79.19
2022-12-12T19:01:14.025Z,79.06
2022-12-12T19:03:43.565Z,78.75
2022-12-12T19:06:12.604Z,78.57
2022-12-12T19:08:41.088Z,79.17
2022-12-12T19:11:08.634Z,78.95
2022-12-12T19:13:35.352Z,79.21
2022-12-12T19:16:04.003Z,78.97
2022-12-12T19:18:30.789Z,79.14
2022-12-12T19:20:57.607Z,78.85
2022-12-12T19:23:24.294Z,79.22
2022-12-12T19:25:52.339Z,79.03
2022-12-12T19:33:23.522Z,78.48
2022-12-12T19:35:50.151Z,79.16
2022-12-12T19:38:22.711Z,79.13
2022-12-12T19:40:52.431Z,79.26
2022-12-12T19:43:19.268Z,79.04
2022-12-12T19:45:46.092Z,79.08
2022-12-12T19:48:13.219Z,79.08
2022-12-12T19:50:39.936Z,78.63
2022-12-12T19:53:06.595Z,78.65
2022-12-12T19:55:33.380Z,78.68
2022-12-12T19:58:03.899Z,78.72
2022-12-12T20:00:30.571Z,78.80
2022-12-12T20:02:57.294Z,78.60
2022-12-12T20:05:24.593Z,78.96
2022-12-12T20:07:51.633Z,78.98
2022-12-12T20:10:18.485Z,79.00
2022-12-12T20:12:56.173Z,78.99
2022-12-12T20:15:26.323Z,79.33
2022-12-12T20:17:52.970Z,79.23
2022-12-12T20:20:19.629Z,78.97
2022-12-12T20:22:46.367Z,79.05
2022-12-12T20:25:13.058Z,78.75
2022-12-12T20:27:39.731Z,78.69
2022-12-12T20:30:10.513Z,79.10
2022-12-12T20:32:38.480Z,78.45
2022-12-12T20:38:38.169Z,78.72
2022-12-12T20:41:10.385Z,78.94
2022-12-12T20:43:37.194Z,78.59
2022-12-12T20:46:09.223Z,79.07
2022-12-12T20:48:38.025Z,79.11
2022-12-12T20:51:06.575Z,78.60
2022-12-12T20:53:38.965Z,78.76
2022-12-12T20:56:11.048Z,78.89
2022-12-12T20:58:38.518Z,78.68
2022-12-12T21:01:10.654Z,78.55
2022-12-12T21:03:39.524Z,79.05
2022-12-12T21:06:11.242Z,78.96
2022-12-12T21:08:37.952Z,79.04
2022-12-12T21:11:05.161Z,78.67
2022-12-12T21:13:31.950Z,78.68
2022-12-12T21:15:58.665Z,78.93
2022-12-12T21:18:27.719Z,78.93
2022-12-12T21:20:55.789Z,78.53
2022-12-12T21:23:25.060Z,79.17
2022-12-12T21:25:54.811Z,79.00
2022-12-12T21:28:21.494Z,78.65
2022-12-12T21:30:48.317Z,78.33
2022-12-12T21:33:16.917Z,78.85
2022-12-12T21:35:43.708Z,79.03
2022-12-12T21:38:11.685Z,79.12
2022-12-12T21:40:38.421Z,79.01
2022-12-12T21:43:05.217Z,78.66
2022-12-12T21:45:31.973Z,79.13
2022-12-12T21:47:58.606Z,79.05
2022-12-12T21:50:30.539Z,78.92
2022-12-12T21:53:15.849Z,78.39
2022-12-12T21:55:44.076Z,78.71
2022-12-12T21:58:10.734Z,78.68
2022-12-12T22:00:40.305Z,78.78
2022-12-12T22:03:09.092Z,78.91
2022-12-12T22:05:35.830Z,78.61
2022-12-12T22:08:02.582Z,78.84
2022-12-12T22:10:29.372Z,78.96
2022-12-12T22:12:57.729Z,78.96
2022-12-12T22:15:24.569Z,78.83
2022-12-12T22:17:51.200Z,78.80
2022-12-12T22:20:18.118Z,78.33
2022-12-12T22:22:44.765Z,78.72
2022-12-12T22:25:11.788Z,78.62
2022-12-12T22:27:38.745Z,78.75
2022-12-12T22:30:08.052Z,78.56
2022-12-12T22:32:35.126Z,78.45
2022-12-12T22:35:01.835Z,78.78
2022-12-12T22:37:33.220Z,78.58
2022-12-12T22:39:59.986Z,79.06
2022-12-12T22:42:27.784Z,78.44
2022-12-12T22:44:54.497Z,78.74
2022-12-12T22:47:24.825Z,79.13
2022-12-12T22:49:52.129Z,78.71
2022-12-12T22:52:18.785Z,78.14
2022-12-12T22:54:45.473Z,78.54
2022-12-12T22:57:12.150Z,78.29
2022-12-12T22:59:38.871Z,79.03
2022-12-12T23:02:05.546Z,78.88
2022-12-12T23:04:34.131Z,78.76
2022-12-12T23:07:00.929Z,78.91
2022-12-12T23:09:27.697Z,78.54
2022-12-12T23:11:55.055Z,78.31
2022-12-12T23:14:24.894Z,78.71
2022-12-12T23:16:52.093Z,78.58
2022-12-12T23:19:21.078Z,78.46
2022-12-12T23:21:49.382Z,78.73
2022-12-12T23:24:16.623Z,78.71
2022-12-12T23:26:44.222Z,78.33
2022-12-12T23:29:15.083Z,78.71
2022-12-12T23:31:41.916Z,78.53
2022-12-12T23:34:15.860Z,78.70
2022-12-12T23:36:43.671Z,78.86
2022-12-12T23:39:12.795Z,78.31
2022-12-12T23:41:39.802Z,78.41
2022-12-12T23:44:07.621Z,78.74
2022-12-12T23:46:36.461Z,78.67
2022-12-12T23:49:06.100Z,78.62
2022-12-12T23:51:35.227Z,78.90
2022-12-12T23:54:04.039Z,78.16
2022-12-12T23:56:34.517Z,78.25
2022-12-12T23:59:01.787Z,78.29
